Soperton, GA

02:56 AM EDT on سبتهبر 03, 2014 (GMT -0400)
South Treutlen Co. | Change Station
CLOSE
Current Station
Personal Weather Stations
Location: Soperton, GA
Elevation: 236 ft
Nearby Weather Stations

Elev 236 ft 32.32 °N, 82.60 °W | Updated 19 seconds ago

صافية
صافية
70.0 °F
Feels Like 70.0 °F
N
0.0
ريح متغير ريح from شمال
Gusts 0.0 mph

هذا اليوم
High -- | Low -- °F
--% Chance of Precip.
Yesterday
High -- | Low -- °F
Precip. -- في
7:06 AM 7:52 PM
الربع الاول, 59% visible
الضغط 30.04 في
وضوح الرؤية 10.0 أميال
سحابات صافية
نقطة الندى 70 °F
الرطوبة 100%
Rainfall 0.00 في
عمق الثلج Not available.
الأشعة فوق البنفسجية 0 out of 12
Pollen 8.60 out of 12
جودة الهواء Not available.
Flu Activity Not available.
METAR KVDI 030635Z AUTO 00000KT 10SM CLR 22/22 A3004 RMK AO2

More Conditions Fewer Conditions

الضغط 30.04 في
وضوح الرؤية 10.0 أميال
سحابات صافية
نقطة الندى 70 °F
الرطوبة 100%
Rainfall 0.00 في
عمق الثلج Not available.
الأشعة فوق البنفسجية 0 out of 12
Pollen 8.60 out of 12
جودة الهواء Not available.
Flu Activity Not available.
METAR KVDI 030635Z AUTO 00000KT 10SM CLR 22/22 A3004 RMK AO2

More Conditions Fewer Conditions

10-Day Weather Forecast

Almanac

علم الفلك

Sep. 03, 2014 Rise Set
Actual Time 7:06 AM EDT 7:52 PM EDT
Civil Twilight 6:41 AM EDT 8:17 PM EDT
Nautical Twilight 6:12 AM EDT 8:46 PM EDT
Astronomical Twilight 5:42 AM EDT 9:16 PM EDT
قمر 3:22 PM EDT 1:10 AM EDT
Length Of Visible Light 13h 35m
طول الیوم
12h 45m
Tomorrow will be 1m 54s shorter.
الربع الاول, 59% of the Moon is Illuminated
هذا اليوم
الربع الاول
Sep 8
بدر
Sep 15
الربع الآخر
Sep 24
New
Oct 1
الربع الاول

Today's Extremes

State Highs State Lows

Community

WunderPhotos

Upload Photos

1,749,888 photos uploaded!

Nearby

عمق الثلج

Station Depth Elevation
No new snow has been reported.

Earthquake Activity

City Distance Mag. Time & Date
No recent earthquake activity has been reported nearby.
Minimum magnitude displayed is 2.5.

Coastal Water Temperatures

مكان درجات الحرارة
No Stations Reporting

Nearby Weather Stations